Terminal Aerodrome Forecast
Issued by NWS Sterling, VA

Current Version | Previous Version | Text Only | Print | Product List | Glossary Off
Versions: 1 2 3 4 5 6 7 8 9 10 11 12 13 14 15 16 17 18 19 20 21 22 23 24

000
FTUS41 KLWX 291728
TAFIAD
TAF
KIAD 291728Z 2918/3024 VRB06KT P6SM FEW050 SCT250
     FM301200 00000KT P6SM SCT120
     FM301900 22004KT P6SM BKN050=

USA.gov is the U.S. government's official web portal to all federal, state and local government web resources and services.